createdAt,value
2023-05-19T00:02:39.657Z,101092.25
2023-05-19T00:05:45.614Z,101099.28
2023-05-19T00:08:49.625Z,101096.75
2023-05-19T00:11:52.322Z,101101.06
2023-05-19T00:14:54.784Z,101091.41
2023-05-19T00:17:57.416Z,101088.78
2023-05-19T00:20:59.851Z,101091.53
2023-05-19T00:24:02.666Z,101097.75
2023-05-19T00:27:05.032Z,101090.81
2023-05-19T00:30:08.323Z,101091.81
2023-05-19T00:33:10.721Z,101090.84
2023-05-19T00:36:13.580Z,101089.94
2023-05-19T00:39:15.965Z,101087.44
2023-05-19T00:42:18.678Z,101088.59
2023-05-19T00:45:21.018Z,101076.63
2023-05-19T00:48:25.154Z,101086.12
2023-05-19T00:51:28.205Z,101078.44
2023-05-19T00:54:31.173Z,101075.03
2023-05-19T00:57:33.639Z,101073.22
2023-05-19T01:00:37.124Z,101075.91
2023-05-19T01:03:40.294Z,101072.53
2023-05-19T01:06:43.845Z,101071.66
2023-05-19T01:09:47.115Z,101070.97
2023-05-19T01:12:50.063Z,101073.56
2023-05-19T01:15:58.439Z,101072.72
2023-05-19T01:19:19.714Z,101064.09
2023-05-19T01:22:55.159Z,101071.06
2023-05-19T01:26:00.815Z,101070.31
2023-05-19T01:29:09.374Z,101066.75
2023-05-19T01:32:12.283Z,101069.38
2023-05-19T01:35:15.688Z,101072.84
2023-05-19T01:38:20.496Z,101078.84
2023-05-19T01:41:23.211Z,101069.38
2023-05-19T01:44:26.980Z,101068.56
2023-05-19T01:47:29.587Z,101065.91
2023-05-19T01:50:32.752Z,101062.41
2023-05-19T01:53:35.651Z,101070.13
2023-05-19T01:56:45.919Z,101061.41
2023-05-19T01:59:54.043Z,101062.28
2023-05-19T02:03:07.815Z,101064.88
2023-05-19T02:06:10.534Z,101072.72
2023-05-19T02:09:12.781Z,101062.28
2023-05-19T02:12:15.378Z,101065.75
2023-05-19T02:15:21.504Z,101060.56
2023-05-19T02:18:25.155Z,101063.16
2023-05-19T02:21:27.849Z,101062.97
2023-05-19T02:24:30.919Z,101064.75
2023-05-19T02:27:35.369Z,101061.34
2023-05-19T02:30:38.181Z,101069.25
2023-05-19T02:33:41.525Z,101066.72
2023-05-19T02:36:44.484Z,101068.50
2023-05-19T02:39:47.132Z,101069.44
2023-05-19T02:42:49.431Z,101069.44
2023-05-19T02:45:53.041Z,101073.72
2023-05-19T02:48:55.414Z,101072.84
2023-05-19T02:51:57.973Z,101069.44
2023-05-19T02:55:00.631Z,101068.34
2023-05-19T02:58:03.314Z,101070.06
2023-05-19T03:01:05.752Z,101067.37
2023-05-19T03:04:08.448Z,101064.75
2023-05-19T03:07:10.914Z,101066.50
2023-05-19T03:10:13.769Z,101058.75
2023-05-19T03:13:17.114Z,101074.37
2023-05-19T03:16:19.772Z,101070.06
2023-05-19T03:19:22.323Z,101065.66
2023-05-19T03:22:25.198Z,101068.25
2023-05-19T03:25:27.660Z,101067.31
2023-05-19T03:28:30.892Z,101078.59
2023-05-19T03:31:33.350Z,101081.97
2023-05-19T03:34:36.519Z,101086.19
2023-05-19T03:37:39.271Z,101085.13
2023-05-19T03:40:42.004Z,101077.94
2023-05-19T03:43:44.637Z,101075.16
2023-05-19T03:46:47.315Z,101074.88
2023-05-19T03:49:51.836Z,101067.78
2023-05-19T03:52:55.708Z,101075.28
2023-05-19T03:55:59.483Z,101074.94
2023-05-19T03:59:02.119Z,101078.13
2023-05-19T04:02:04.678Z,101082.19
2023-05-19T04:05:07.935Z,101081.88
2023-05-19T04:08:10.464Z,101085.16
2023-05-19T04:11:13.149Z,101077.94
2023-05-19T04:14:16.082Z,101081.19
2023-05-19T04:17:18.877Z,101087.72
2023-05-19T04:20:21.246Z,101084.87
2023-05-19T04:23:23.871Z,101094.84
2023-05-19T04:26:26.908Z,101096.53
2023-05-19T04:29:29.651Z,101100.72
2023-05-19T04:32:32.040Z,101110.94
2023-05-19T04:35:35.317Z,101106.06
2023-05-19T04:38:39.840Z,101114.06
2023-05-19T04:41:44.809Z,101107.69
2023-05-19T04:44:49.433Z,101116.56
2023-05-19T04:47:52.777Z,101116.94
2023-05-19T04:50:55.257Z,101121.56
2023-05-19T04:53:58.175Z,101119.13
2023-05-19T04:57:01.229Z,101123.53
2023-05-19T05:00:08.293Z,101124.41
2023-05-19T05:03:14.683Z,101121.00
2023-05-19T05:06:17.740Z,101120.06
2023-05-19T05:09:20.212Z,101122.53
2023-05-19T05:12:24.435Z,101133.78
2023-05-19T05:15:28.840Z,101131.97
2023-05-19T05:18:32.850Z,101136.16
2023-05-19T05:21:35.370Z,101138.97
2023-05-19T05:24:38.348Z,101142.88
2023-05-19T05:27:40.858Z,101147.41
2023-05-19T05:30:45.001Z,101145.09
2023-05-19T05:33:49.139Z,101140.00
2023-05-19T05:36:54.024Z,101140.72
2023-05-19T05:39:57.042Z,101139.84
2023-05-19T05:43:00.180Z,101147.28
2023-05-19T05:46:03.048Z,101146.25
2023-05-19T05:49:06.544Z,101147.00
2023-05-19T05:52:11.015Z,101140.62
2023-05-19T05:55:14.384Z,101146.19
2023-05-19T05:58:17.044Z,101148.34
2023-05-19T06:01:21.068Z,101150.75
2023-05-19T06:04:25.658Z,101149.44
2023-05-19T06:07:29.976Z,101150.50
2023-05-19T06:10:33.336Z,101148.00
2023-05-19T06:13:36.463Z,101156.06
2023-05-19T06:16:40.121Z,101156.94
2023-05-19T06:19:43.250Z,101155.97
2023-05-19T06:22:45.897Z,101152.81
2023-05-19T06:25:48.911Z,101156.84
2023-05-19T06:28:52.274Z,101165.34
2023-05-19T06:31:54.778Z,101168.53
2023-05-19T06:34:57.607Z,101171.56
2023-05-19T06:38:01.040Z,101177.38
2023-05-19T06:41:03.810Z,101174.81
2023-05-19T06:44:07.226Z,101173.28
2023-05-19T06:47:10.585Z,101185.25
2023-05-19T06:50:13.687Z,101186.97
2023-05-19T06:53:17.220Z,101189.63
2023-05-19T06:56:20.146Z,101195.81
2023-05-19T06:59:23.169Z,101192.38
2023-05-19T07:02:26.379Z,101193.22
2023-05-19T07:05:29.102Z,101185.69
2023-05-19T07:08:31.977Z,101189.13
2023-05-19T07:11:35.582Z,101191.72
2023-05-19T07:14:38.979Z,101194.44
2023-05-19T07:17:42.105Z,101190.38
2023-05-19T07:20:44.583Z,101189.03
2023-05-19T07:23:47.227Z,101195.94
2023-05-19T07:26:49.558Z,101191.66
2023-05-19T07:29:52.205Z,101188.12
2023-05-19T07:32:54.499Z,101192.50
2023-05-19T07:35:57.131Z,101182.69
2023-05-19T07:38:59.533Z,101180.28
2023-05-19T07:42:02.481Z,101166.91
2023-05-19T07:45:04.984Z,101160.34
2023-05-19T07:48:08.052Z,101163.59
2023-05-19T07:51:11.395Z,101157.50
2023-05-19T07:54:14.099Z,101163.31
2023-05-19T07:57:16.661Z,101151.22
2023-05-19T08:00:19.362Z,101152.03
2023-05-19T08:03:23.694Z,101151.72
2023-05-19T08:06:26.348Z,101146.53
2023-05-19T08:09:28.997Z,101146.09
2023-05-19T08:12:33.278Z,101145.22
2023-05-19T08:15:36.791Z,101141.56
2023-05-19T08:18:39.198Z,101140.00
2023-05-19T08:21:42.494Z,101139.03
2023-05-19T08:24:45.155Z,101138.13
2023-05-19T08:27:47.784Z,101136.72
2023-05-19T08:30:51.028Z,101131.53
2023-05-19T08:33:53.730Z,101133.09
2023-05-19T08:36:57.802Z,101133.44
2023-05-19T08:40:00.799Z,101135.78
2023-05-19T08:43:03.666Z,101126.16
2023-05-19T08:46:08.201Z,101128.94
2023-05-19T08:49:14.162Z,101126.72
2023-05-19T08:52:27.627Z,101125.78
2023-05-19T08:55:45.029Z,101133.03
2023-05-19T08:58:48.848Z,101129.81
2023-05-19T09:01:51.651Z,101142.31
2023-05-19T09:04:55.970Z,101130.06
2023-05-19T09:07:58.451Z,101131.34
2023-05-19T09:11:01.162Z,101119.91
2023-05-19T09:14:06.414Z,101113.50
2023-05-19T09:17:09.820Z,101122.22
2023-05-19T09:20:12.370Z,101119.19
2023-05-19T09:23:16.549Z,101117.66
2023-05-19T09:26:19.073Z,101117.56
2023-05-19T09:29:21.717Z,101112.59
2023-05-19T09:32:25.151Z,101111.37
2023-05-19T09:35:27.832Z,101110.03
2023-05-19T09:38:30.383Z,101118.72
2023-05-19T09:41:33.124Z,101107.50
2023-05-19T09:44:35.480Z,101117.66
2023-05-19T09:47:39.023Z,101111.41
2023-05-19T09:50:42.764Z,101106.84
2023-05-19T09:53:46.468Z,101112.69
2023-05-19T09:56:53.209Z,101103.22
2023-05-19T09:59:57.104Z,101095.69
2023-05-19T10:03:00.518Z,101098.81
2023-05-19T10:06:04.660Z,101093.47
2023-05-19T10:09:07.724Z,101087.59
2023-05-19T10:12:11.111Z,101083.66
2023-05-19T10:15:14.342Z,101085.53
2023-05-19T10:18:18.179Z,101075.03
2023-05-19T10:21:20.916Z,101074.94
2023-05-19T10:24:23.582Z,101071.66
2023-05-19T10:27:28.149Z,101067.91
2023-05-19T10:30:36.017Z,101065.56
2023-05-19T10:33:41.061Z,101065.13
2023-05-19T10:36:48.633Z,101070.19
2023-05-19T10:39:51.328Z,101060.28
2023-05-19T10:43:01.384Z,101072.16
2023-05-19T10:46:04.376Z,101063.09
2023-05-19T10:49:07.918Z,101064.53
2023-05-19T10:52:21.634Z,101058.84
2023-05-19T10:55:43.118Z,101059.72
2023-05-19T10:58:45.392Z,101050.03
2023-05-19T11:01:48.377Z,101050.34
2023-05-19T11:04:51.960Z,101047.41
2023-05-19T11:07:56.203Z,101041.66
2023-05-19T11:11:12.008Z,101027.00
2023-05-19T11:14:17.113Z,101031.19
2023-05-19T11:17:22.074Z,101025.38
2023-05-19T11:20:25.855Z,101029.59
2023-05-19T11:23:28.317Z,101023.81
2023-05-19T11:26:41.477Z,101025.41
2023-05-19T11:29:43.925Z,101026.47
2023-05-19T11:32:49.742Z,101028.28
2023-05-19T11:35:53.325Z,101027.69
2023-05-19T11:38:57.067Z,101033.50
2023-05-19T11:41:59.408Z,101019.75
2023-05-19T11:45:02.224Z,101014.19
2023-05-19T11:48:05.421Z,101027.56
2023-05-19T11:51:08.249Z,101021.97
2023-05-19T11:54:11.620Z,101017.28
2023-05-19T11:57:14.278Z,101014.53
2023-05-19T12:00:16.690Z,101018.16
2023-05-19T12:03:21.634Z,101015.12
2023-05-19T12:06:25.931Z,101018.97
2023-05-19T12:09:28.584Z,101017.09
2023-05-19T12:12:31.217Z,101016.44
2023-05-19T12:15:36.768Z,101015.25
2023-05-19T12:18:40.383Z,101007.66
2023-05-19T12:21:43.347Z,101001.97
2023-05-19T12:24:46.813Z,100998.69
2023-05-19T12:27:49.788Z,100994.72
2023-05-19T12:30:54.091Z,100987.19
2023-05-19T12:33:56.908Z,100985.06
2023-05-19T12:36:59.361Z,100983.84
2023-05-19T12:40:03.587Z,100980.19
2023-05-19T12:43:07.856Z,100972.44
2023-05-19T12:46:11.502Z,100969.50
2023-05-19T12:49:13.951Z,100967.28
2023-05-19T12:52:16.859Z,100964.03
2023-05-19T12:55:20.542Z,100957.28
2023-05-19T12:58:24.198Z,100952.16
2023-05-19T13:01:26.686Z,100963.47
2023-05-19T13:04:29.482Z,100959.69
2023-05-19T13:07:32.218Z,100954.91
2023-05-19T13:10:35.898Z,100960.97
2023-05-19T13:13:38.330Z,100953.56
2023-05-19T13:16:41.199Z,100954.44
2023-05-19T13:19:43.606Z,100941.25
2023-05-19T13:22:47.108Z,100946.06
2023-05-19T13:25:50.698Z,100943.88
2023-05-19T13:28:53.479Z,100940.28
2023-05-19T13:31:55.880Z,100920.88
2023-05-19T13:34:58.819Z,100929.50
2023-05-19T13:38:01.201Z,100917.41
2023-05-19T13:41:03.828Z,100920.00
2023-05-19T13:44:06.291Z,100911.22
2023-05-19T13:47:09.024Z,100918.06
2023-05-19T13:50:12.308Z,100913.41
2023-05-19T13:53:15.144Z,100912.28
2023-05-19T13:56:17.517Z,100909.56
2023-05-19T13:59:21.592Z,100910.91
2023-05-19T14:02:24.360Z,100910.44
2023-05-19T14:05:28.880Z,100902.00
2023-05-19T14:08:31.391Z,100906.19
2023-05-19T14:11:34.179Z,100901.47
2023-05-19T14:14:36.746Z,100903.78
2023-05-19T14:17:39.444Z,100905.06
2023-05-19T14:20:41.859Z,100899.59
2023-05-19T14:23:44.487Z,100899.28
2023-05-19T14:26:46.765Z,100895.59
2023-05-19T14:29:50.010Z,100895.81
2023-05-19T14:32:52.995Z,100900.25
2023-05-19T14:35:58.858Z,100899.44
2023-05-19T14:39:01.558Z,100887.31
2023-05-19T14:42:04.246Z,100894.19
2023-05-19T14:45:06.951Z,100889.00
2023-05-19T14:48:11.961Z,100898.25
2023-05-19T14:51:14.508Z,100890.84
2023-05-19T14:54:17.198Z,100894.37
2023-05-19T14:57:19.661Z,100894.81
2023-05-19T15:00:22.396Z,100894.03
2023-05-19T15:03:24.975Z,100887.06
2023-05-19T15:06:27.873Z,100878.88
2023-05-19T15:09:30.218Z,100881.56
2023-05-19T15:12:33.162Z,100881.81
2023-05-19T15:15:35.785Z,100877.78
2023-05-19T15:18:38.478Z,100871.19
2023-05-19T15:21:41.224Z,100859.69
2023-05-19T15:24:43.982Z,100859.94
2023-05-19T15:27:47.650Z,100866.56
2023-05-19T15:30:50.530Z,100866.56
2023-05-19T15:33:53.022Z,100872.97
2023-05-19T15:36:55.816Z,100867.91
2023-05-19T15:39:58.218Z,100879.97
2023-05-19T15:43:01.254Z,100863.53
2023-05-19T15:46:13.333Z,100868.00
2023-05-19T15:49:17.992Z,100868.00
2023-05-19T15:52:20.497Z,100862.56
2023-05-19T15:55:23.232Z,100865.22
2023-05-19T15:58:25.873Z,100864.34
2023-05-19T16:01:28.957Z,100856.66
2023-05-19T16:04:31.670Z,100855.69
2023-05-19T16:07:34.105Z,100854.59
2023-05-19T16:10:36.813Z,100860.25
2023-05-19T16:13:39.112Z,100863.28
2023-05-19T16:16:41.869Z,100862.81
2023-05-19T16:19:44.448Z,100858.59
2023-05-19T16:22:47.165Z,100868.81
2023-05-19T16:25:49.545Z,100871.44
2023-05-19T16:28:52.171Z,100865.69
2023-05-19T16:31:54.517Z,100867.37
2023-05-19T16:34:57.220Z,100872.09
2023-05-19T16:37:59.609Z,100872.09
2023-05-19T16:41:04.407Z,100872.25
2023-05-19T16:44:07.721Z,100865.94
2023-05-19T16:47:10.594Z,100866.38
2023-05-19T16:50:13.122Z,100869.09
2023-05-19T16:53:16.074Z,100869.38
2023-05-19T16:56:18.453Z,100867.72
2023-05-19T16:59:21.097Z,100861.56
2023-05-19T17:02:23.619Z,100865.50
2023-05-19T17:05:27.232Z,100862.59
2023-05-19T17:08:29.698Z,100865.38
2023-05-19T17:11:32.454Z,100862.28
2023-05-19T17:14:35.029Z,100860.69
2023-05-19T17:17:37.803Z,100866.09
2023-05-19T17:20:40.344Z,100866.94
2023-05-19T17:23:43.012Z,100871.16
2023-05-19T17:26:45.647Z,100873.66
2023-05-19T17:29:48.285Z,100877.03
2023-05-19T17:32:51.083Z,100875.47
2023-05-19T17:35:53.674Z,100876.38
2023-05-19T17:38:56.186Z,100874.63
2023-05-19T17:41:58.798Z,100879.94
2023-05-19T17:45:01.274Z,100880.06
2023-05-19T17:48:04.762Z,100882.84
2023-05-19T17:51:07.511Z,100892.41
2023-05-19T17:54:10.473Z,100889.72
2023-05-19T17:57:15.835Z,100886.97
2023-05-19T18:00:18.726Z,100880.81
2023-05-19T18:03:22.111Z,100894.09
2023-05-19T18:06:25.463Z,100881.81
2023-05-19T18:09:29.337Z,100884.28
2023-05-19T18:12:31.736Z,100881.59
2023-05-19T18:15:34.742Z,100885.03
2023-05-19T18:18:40.046Z,100888.47
2023-05-19T18:21:42.769Z,100885.75
2023-05-19T18:24:45.140Z,100881.34
2023-05-19T18:27:47.854Z,100890.69
2023-05-19T18:31:00.172Z,100891.34
2023-05-19T18:34:04.336Z,100892.91
2023-05-19T18:37:06.637Z,100893.75
2023-05-19T18:40:09.451Z,100897.91
2023-05-19T18:43:11.914Z,100901.94
2023-05-19T18:46:14.533Z,100908.53
2023-05-19T18:49:17.209Z,100911.69
2023-05-19T18:52:21.687Z,100913.78
2023-05-19T18:55:24.038Z,100918.59
2023-05-19T18:58:26.632Z,100917.19
2023-05-19T19:01:29.054Z,100914.09
2023-05-19T19:04:31.829Z,100918.81
2023-05-19T19:07:34.218Z,100917.44
2023-05-19T19:10:40.349Z,100915.13
2023-05-19T19:13:43.652Z,100911.22
2023-05-19T19:16:46.369Z,100919.31
2023-05-19T19:19:48.984Z,100924.66
2023-05-19T19:22:52.136Z,100923.25
2023-05-19T19:25:56.469Z,100925.31
2023-05-19T19:28:59.248Z,100928.16
2023-05-19T19:32:02.016Z,100932.78
2023-05-19T19:35:04.947Z,100934.81
2023-05-19T19:38:07.310Z,100926.13
2023-05-19T19:41:10.596Z,100937.69
2023-05-19T19:44:13.704Z,100939.69
2023-05-19T19:47:16.481Z,100942.31
2023-05-19T19:50:18.967Z,100948.50
2023-05-19T19:53:22.067Z,100952.81
2023-05-19T19:56:26.143Z,100953.81
2023-05-19T19:59:29.406Z,100952.13
2023-05-19T20:02:32.602Z,100956.44
2023-05-19T20:05:37.123Z,100961.63
2023-05-19T20:08:39.499Z,100957.94
2023-05-19T20:11:42.160Z,100954.38
2023-05-19T20:14:44.481Z,100962.97
2023-05-19T20:17:47.219Z,100959.34
2023-05-19T20:20:49.604Z,100956.50
2023-05-19T20:23:52.306Z,100961.59
2023-05-19T20:26:54.704Z,100957.22
2023-05-19T20:29:57.480Z,100955.13
2023-05-19T20:33:00.021Z,100956.00
2023-05-19T20:36:02.824Z,100958.44
2023-05-19T20:39:07.027Z,100960.16
2023-05-19T20:42:09.762Z,100961.06
2023-05-19T20:45:12.198Z,100960.25
2023-05-19T20:48:15.835Z,100959.84
2023-05-19T20:51:18.368Z,100960.03
2023-05-19T20:54:21.330Z,100967.09
2023-05-19T20:57:23.961Z,100961.94
2023-05-19T21:00:27.426Z,100950.50
2023-05-19T21:03:32.100Z,100958.22
2023-05-19T21:06:34.882Z,100946.09
2023-05-19T21:09:37.339Z,100959.44
2023-05-19T21:12:40.163Z,100955.50
2023-05-19T21:15:42.586Z,100953.22
2023-05-19T21:18:45.356Z,100956.50
2023-05-19T21:21:47.983Z,100960.66
2023-05-19T21:24:50.716Z,100948.94
2023-05-19T21:27:53.270Z,100952.03
2023-05-19T21:30:56.098Z,100953.88
2023-05-19T21:33:58.921Z,100950.88
2023-05-19T21:37:01.556Z,100957.81
2023-05-19T21:40:04.058Z,100957.44
2023-05-19T21:43:06.810Z,100955.44
2023-05-19T21:46:09.341Z,100948.47
2023-05-19T21:49:12.110Z,100954.34
2023-05-19T21:52:14.431Z,100949.41
2023-05-19T21:55:17.168Z,100957.34
2023-05-19T21:58:19.666Z,100948.97
2023-05-19T22:01:22.688Z,100946.53
2023-05-19T22:04:25.446Z,100944.22
2023-05-19T22:07:28.643Z,100947.12
2023-05-19T22:10:32.528Z,100946.38
2023-05-19T22:13:37.488Z,100939.38
2023-05-19T22:16:40.287Z,100933.50
2023-05-19T22:19:42.816Z,100928.44
2023-05-19T22:22:45.422Z,100924.06
2023-05-19T22:25:47.800Z,100913.19
2023-05-19T22:28:50.573Z,100911.63
2023-05-19T22:31:53.159Z,100911.69
2023-05-19T22:34:56.051Z,100912.53
2023-05-19T22:37:58.397Z,100906.41
2023-05-19T22:41:01.060Z,100909.78
2023-05-19T22:44:03.568Z,100905.34
2023-05-19T22:47:06.303Z,100908.88
2023-05-19T22:50:12.301Z,100902.84
2023-05-19T22:53:14.868Z,100911.47
2023-05-19T22:56:17.240Z,100908.81
2023-05-19T22:59:19.937Z,100901.94
2023-05-19T23:02:22.273Z,100897.38
2023-05-19T23:05:25.477Z,100901.75
2023-05-19T23:08:27.917Z,100891.53
2023-05-19T23:11:30.682Z,100890.09
2023-05-19T23:14:32.982Z,100884.41
2023-05-19T23:17:36.073Z,100888.50
2023-05-19T23:20:38.454Z,100892.28
2023-05-19T23:23:41.140Z,100892.19
2023-05-19T23:26:46.123Z,100893.69
2023-05-19T23:29:49.448Z,100891.41
2023-05-19T23:32:53.039Z,100883.81
2023-05-19T23:35:55.832Z,100889.38
2023-05-19T23:38:58.154Z,100895.66
2023-05-19T23:42:00.826Z,100895.06
2023-05-19T23:45:03.365Z,100884.72
2023-05-19T23:48:06.212Z,100882.28
2023-05-19T23:51:08.735Z,100882.72
2023-05-19T23:54:11.468Z,100883.75
2023-05-19T23:57:13.946Z,100885.63
